Time;durP1;ratioP1;P1;durP2;ratioP2;P2;SDS_P1;SDS_P2;PMS_P1;PMS_P2;Temp;Humidity;BMP_temperature;BMP_pressure;BME280_temperature;BME280_humidity;BME280_pressure;Samples;Min_cycle;Max_cycle;Signal;HPM_P1;HPM_P2
2023/05/21 00:02:03;;;;;;;13.57;3.70;;;;;;;-144.73;100.00;54346.13;5067651;28;20042;-69
2023/05/21 00:04:30;;;;;;;10.27;3.42;;;;;;;-144.73;100.00;54346.13;5067891;28;20020;-70
2023/05/21 00:06:57;;;;;;;9.27;3.60;;;;;;;-144.73;100.00;54315.34;5067841;28;20377;-70
2023/05/21 00:09:22;;;;;;;18.25;4.63;;;;;;;-144.73;100.00;54317.38;5069654;28;20020;-71
2023/05/21 00:11:48;;;;;;;9.93;3.08;;;;;;;-144.73;100.00;54370.75;5069035;28;20033;-71
2023/05/21 00:14:13;;;;;;;13.50;3.67;;;;;;;-144.73;100.00;54296.88;5066830;28;20032;-70
2023/05/21 00:16:39;;;;;;;14.68;3.22;;;;;;;-144.73;100.00;54350.22;5069195;28;20089;-71
2023/05/21 00:19:05;;;;;;;11.25;3.65;;;;;;;-144.73;100.00;54317.38;5068361;28;20025;-70
2023/05/21 00:21:30;;;;;;;13.35;4.45;;;;;;;-144.73;100.00;54280.44;5068424;28;20019;-70
2023/05/21 00:23:55;;;;;;;11.70;3.53;;;;;;;-144.73;100.00;54300.97;5067277;28;20020;-70
2023/05/21 00:26:22;;;;;;;15.38;4.03;;;;;;;-144.73;100.00;54342.03;5066747;28;20024;-70
2023/05/21 00:28:48;;;;;;;13.02;4.10;;;;;;;-144.73;100.00;54344.06;5068034;28;20099;-70
2023/05/21 00:31:14;;;;;;;12.88;3.25;;;;;;;-144.73;100.00;54303.03;5068031;28;20099;-70
2023/05/21 00:33:40;;;;;;;10.02;3.58;;;;;;;-144.73;100.00;54305.06;5067497;28;20514;-70
2023/05/21 00:36:06;;;;;;;10.77;3.33;;;;;;;-144.73;100.00;54329.72;5069485;28;20016;-70
2023/05/21 00:38:32;;;;;;;12.65;3.55;;;;;;;-144.73;100.00;54342.03;5068147;28;20024;-70
2023/05/21 00:41:03;;;;;;;7.57;3.10;;;;;;;-144.73;100.00;54342.03;5067614;28;20020;-70
2023/05/21 00:43:29;;;;;;;19.33;3.65;;;;;;;-144.73;100.00;54276.34;5060999;28;20029;-70
2023/05/21 00:45:55;;;;;;;17.55;3.58;;;;;;;-144.73;100.00;54317.38;5068201;28;20025;-69
2023/05/21 00:48:22;;;;;;;13.82;3.65;;;;;;;-144.73;100.00;54288.66;5067285;28;20032;-69
2023/05/21 00:50:48;;;;;;;8.55;3.10;;;;;;;-144.73;100.00;54358.44;5067370;28;20016;-69
2023/05/21 00:53:14;;;;;;;20.05;3.40;;;;;;;-144.73;100.00;54317.38;5067196;28;20090;-70
2023/05/21 00:55:39;;;;;;;10.65;3.40;;;;;;;-144.73;100.00;54319.44;5067331;28;20074;-70
2023/05/21 00:58:06;;;;;;;11.80;3.85;;;;;;;-144.73;100.00;54350.22;5067160;28;20033;-70
2023/05/21 01:00:36;;;;;;;20.67;3.25;;;;;;;-144.73;100.00;54321.50;5068020;28;20017;-70
2023/05/21 01:03:01;;;;;;;13.63;3.00;;;;;;;-144.73;100.00;54327.66;5066746;28;20047;-70
2023/05/21 01:05:27;;;;;;;13.73;3.33;;;;;;;-144.73;100.00;54350.22;5067166;28;20021;-70
2023/05/21 01:07:54;;;;;;;7.60;2.83;;;;;;;-144.73;100.00;54292.75;5067053;28;20025;-70
2023/05/21 01:10:20;;;;;;;10.63;3.30;;;;;;;-144.73;100.00;54288.66;5067276;28;20024;-71
2023/05/21 01:12:46;;;;;;;11.38;3.35;;;;;;;-144.73;100.00;54321.50;5069069;28;20047;-69
2023/05/21 01:15:12;;;;;;;13.60;3.72;;;;;;;-144.73;100.00;54317.38;5068200;28;20029;-70
2023/05/21 01:17:38;;;;;;;9.73;3.28;;;;;;;-144.73;100.00;54323.53;5068965;28;20059;-69
2023/05/21 01:20:09;;;;;;;13.10;3.55;;;;;;;-144.73;100.00;54333.81;5068769;28;20056;-71
2023/05/21 01:22:35;;;;;;;13.38;3.60;;;;;;;-144.73;100.00;54325.59;5068750;28;20035;-70
2023/05/21 01:25:01;;;;;;;9.90;3.15;;;;;;;-144.73;100.00;54333.81;5069320;28;20033;-70
2023/05/21 01:27:27;;;;;;;11.52;3.40;;;;;;;-144.73;100.00;54284.56;5071412;28;20028;-70
2023/05/21 01:29:52;;;;;;;12.25;3.40;;;;;;;-144.73;100.00;54325.59;5072660;28;20024;-70
2023/05/21 01:32:28;;;;;;;14.52;3.50;;;;;;;-144.73;100.00;54329.72;5070299;28;20071;-70
2023/05/21 01:35:03;;;;;;;10.27;2.92;;;;;;;-144.73;100.00;54294.81;5072130;28;20044;-69
2023/05/21 01:37:35;;;;;;;11.57;3.60;;;;;;;-144.73;100.00;54313.28;5070094;28;20032;-70
2023/05/21 01:40:15;;;;;;;12.57;3.55;;;;;;;-144.73;100.00;54333.81;5072328;28;20048;-70
2023/05/21 01:42:43;;;;;;;14.10;3.60;;;;;;;-144.73;100.00;54309.19;5066328;28;20123;-70
2023/05/21 01:45:10;;;;;;;12.45;3.30;;;;;;;-144.73;100.00;54288.66;5070198;28;20044;-70
2023/05/21 01:47:36;;;;;;;18.77;3.65;;;;;;;-144.73;100.00;54321.50;5070573;28;20041;-70
2023/05/21 01:50:04;;;;;;;12.25;3.13;;;;;;;-144.73;100.00;54333.81;5071934;28;20028;-70
2023/05/21 01:52:29;;;;;;;9.10;3.30;;;;;;;-144.73;100.00;54337.91;5064279;28;20032;-70
2023/05/21 01:54:59;;;;;;;15.65;3.80;;;;;;;-144.73;100.00;54356.38;5071312;28;20136;-70
2023/05/21 01:57:24;;;;;;;13.30;3.80;;;;;;;-144.73;100.00;54317.38;5069655;28;20048;-71
2023/05/21 01:59:52;;;;;;;19.23;4.57;;;;;;;-144.73;100.00;54329.72;5070791;28;20090;-70
2023/05/21 02:02:17;;;;;;;14.15;3.25;;;;;;;-144.73;100.00;54339.97;5070853;28;20045;-70
2023/05/21 02:04:44;;;;;;;12.07;4.90;;;;;;;-144.73;100.00;54292.75;5071215;28;20028;-70
2023/05/21 02:07:13;;;;;;;13.43;4.28;;;;;;;-144.73;100.00;54321.50;5069748;28;20033;-70
2023/05/21 02:09:39;;;;;;;15.23;4.00;;;;;;;-144.73;100.00;54309.19;5070766;28;20051;-70
2023/05/21 02:12:05;;;;;;;11.43;3.22;;;;;;;-144.73;100.00;54313.28;5070754;28;20118;-70
2023/05/21 02:14:32;;;;;;;9.05;3.20;;;;;;;-144.73;100.00;54358.44;5070725;28;20020;-70
2023/05/21 02:16:59;;;;;;;20.30;3.80;;;;;;;-144.73;100.00;54342.03;5070149;28;20041;-70
2023/05/21 02:19:25;;;;;;;15.30;4.00;;;;;;;-144.73;100.00;54346.13;5071217;28;20498;-70
2023/05/21 02:21:50;;;;;;;13.10;3.63;;;;;;;-144.73;100.00;54321.50;5070589;28;20036;-70
2023/05/21 02:24:15;;;;;;;12.30;3.85;;;;;;;-144.73;100.00;54300.97;5067966;28;20108;-70
2023/05/21 02:26:42;;;;;;;13.80;3.60;;;;;;;-144.73;100.00;54362.53;5070219;28;20032;-70
2023/05/21 02:29:07;;;;;;;14.07;3.47;;;;;;;-144.73;100.00;54350.22;5070287;28;20032;-70
2023/05/21 02:31:33;;;;;;;10.95;3.42;;;;;;;-144.73;100.00;54280.44;5071385;28;20031;-70
2023/05/21 02:33:58;;;;;;;9.55;3.47;;;;;;;-144.73;100.00;54317.38;5071444;28;20029;-70
2023/05/21 02:36:24;;;;;;;10.15;3.63;;;;;;;-144.73;100.00;54296.88;5058283;28;20037;-70
2023/05/21 02:38:49;;;;;;;7.35;3.10;;;;;;;-144.73;100.00;54317.38;5064201;28;20089;-71
2023/05/21 02:41:15;;;;;;;15.88;3.70;;;;;;;-144.73;100.00;54305.06;5063631;28;20029;-70
2023/05/21 02:43:40;;;;;;;12.15;2.85;;;;;;;-144.73;100.00;54321.50;5070191;28;20033;-70
2023/05/21 02:46:06;;;;;;;13.73;3.88;;;;;;;-144.73;100.00;54305.06;5069556;28;20025;-70
2023/05/21 02:48:31;;;;;;;13.27;3.92;;;;;;;-144.73;100.00;54323.53;5069607;28;20033;-70
2023/05/21 02:50:57;;;;;;;15.57;4.20;;;;;;;-144.73;100.00;54319.44;5069910;28;20028;-70
2023/05/21 02:53:23;;;;;;;19.38;4.47;;;;;;;-144.73;100.00;54315.34;5068981;28;20036;-70
2023/05/21 02:55:48;;;;;;;13.38;4.03;;;;;;;-144.73;100.00;54329.72;5068625;28;20435;-70
2023/05/21 02:58:14;;;;;;;14.65;4.32;;;;;;;-144.73;100.00;54321.50;5065072;28;20041;-70
2023/05/21 03:00:40;;;;;;;18.73;4.85;;;;;;;-144.73;100.00;54366.66;5070529;28;20032;-70
2023/05/21 03:03:06;;;;;;;10.77;4.00;;;;;;;-144.73;100.00;54362.53;5068252;28;20036;-70
2023/05/21 03:05:31;;;;;;;10.38;3.63;;;;;;;-144.73;100.00;54360.50;5069529;28;20475;-70
2023/05/21 03:07:56;;;;;;;12.30;3.35;;;;;;;-144.73;100.00;54331.75;5068906;28;20098;-71
2023/05/21 03:10:22;;;;;;;11.55;3.75;;;;;;;-144.73;100.00;54321.50;5069574;28;20494;-70
2023/05/21 03:12:47;;;;;;;16.58;4.47;;;;;;;-144.73;100.00;54331.75;5068985;28;20032;-70
2023/05/21 03:15:15;;;;;;;12.63;3.53;;;;;;;-144.73;100.00;54317.38;5070789;28;20036;-70
2023/05/21 03:17:41;;;;;;;22.58;4.97;;;;;;;-144.73;100.00;54337.91;5068917;28;20044;-71
2023/05/21 03:20:08;;;;;;;10.88;3.92;;;;;;;-144.73;100.00;54344.06;5068744;28;20029;-70
2023/05/21 03:22:33;;;;;;;12.20;4.50;;;;;;;-144.73;100.00;54280.44;5068615;28;20032;-70
2023/05/21 03:24:59;;;;;;;14.20;3.67;;;;;;;-144.73;100.00;54342.03;5066844;28;20024;-70
2023/05/21 03:27:24;;;;;;;14.43;4.85;;;;;;;-144.73;100.00;54350.22;5068319;28;20498;-70
2023/05/21 03:29:50;;;;;;;15.57;4.20;;;;;;;-144.73;100.00;54315.34;5070212;28;20035;-70
2023/05/21 03:32:16;;;;;;;13.15;4.38;;;;;;;-144.73;100.00;54352.28;5068163;28;20029;-70
2023/05/21 03:34:41;;;;;;;19.15;4.30;;;;;;;-144.73;100.00;54305.06;5070394;28;20032;-70
2023/05/21 03:37:06;;;;;;;11.80;4.88;;;;;;;-144.73;100.00;54346.13;5067782;28;20040;-70
2023/05/21 03:39:32;;;;;;;21.13;4.70;;;;;;;-144.73;100.00;54337.91;5069021;28;20155;-70
2023/05/21 03:41:57;;;;;;;17.45;4.78;;;;;;;-144.73;100.00;54307.13;5067669;28;20056;-70
2023/05/21 03:44:22;;;;;;;15.30;4.70;;;;;;;-144.73;100.00;54309.19;5068494;28;20048;-71
2023/05/21 03:46:47;;;;;;;12.05;4.22;;;;;;;-144.73;100.00;54329.72;5068326;28;20115;-70
2023/05/21 03:49:13;;;;;;;15.88;4.75;;;;;;;-144.73;100.00;54305.06;5069543;28;20063;-70
2023/05/21 03:51:38;;;;;;;14.63;5.22;;;;;;;-144.73;100.00;54342.03;5069936;28;20077;-70
2023/05/21 03:54:03;;;;;;;17.65;4.70;;;;;;;-144.73;100.00;54358.44;5067822;28;20082;-71
2023/05/21 03:56:29;;;;;;;12.02;4.35;;;;;;;-144.73;100.00;54346.13;5067813;28;20020;-71
2023/05/21 03:58:54;;;;;;;18.60;5.03;;;;;;;-144.73;100.00;54317.38;5068416;28;20028;-71
2023/05/21 04:01:19;;;;;;;10.40;4.30;;;;;;;-144.73;100.00;54333.81;5068216;28;20127;-71
2023/05/21 04:03:45;;;;;;;14.73;4.97;;;;;;;-144.73;100.00;54339.97;5068217;28;20024;-70
2023/05/21 04:06:10;;;;;;;26.88;5.43;;;;;;;-144.73;100.00;54333.81;5067674;28;20032;-70
2023/05/21 04:08:36;;;;;;;12.27;4.47;;;;;;;-144.73;100.00;54344.06;5067970;28;20434;-70
2023/05/21 04:11:02;;;;;;;14.73;4.97;;;;;;;-144.73;100.00;54331.75;5068088;28;20044;-69
2023/05/21 04:13:27;;;;;;;14.68;4.78;;;;;;;-144.73;100.00;54284.56;5066627;28;20063;-69
2023/05/21 04:15:53;;;;;;;12.63;4.20;;;;;;;-144.73;100.00;54366.66;5069566;28;20029;-69
2023/05/21 04:18:19;;;;;;;17.02;4.85;;;;;;;-144.73;100.00;54335.88;5067582;28;20567;-69
2023/05/21 04:20:45;;;;;;;24.08;5.22;;;;;;;-144.73;100.00;54325.59;5068208;28;20029;-69
2023/05/21 04:23:10;;;;;;;13.40;4.15;;;;;;;-144.73;100.00;54350.22;5067819;28;20089;-69
2023/05/21 04:25:37;;;;;;;19.73;5.10;;;;;;;-144.73;100.00;54309.19;5068357;28;20063;-70
2023/05/21 04:28:03;;;;;;;18.40;4.55;;;;;;;-144.73;100.00;54321.50;5067309;28;20040;-70
2023/05/21 04:30:29;;;;;;;14.60;4.80;;;;;;;-144.73;100.00;54325.59;5067870;28;20013;-70
2023/05/21 04:32:54;;;;;;;17.27;5.13;;;;;;;-144.73;100.00;54370.75;5068395;28;20033;-70
2023/05/21 04:35:20;;;;;;;16.30;5.07;;;;;;;-144.73;100.00;54354.34;5068286;28;20120;-71
2023/05/21 04:37:45;;;;;;;14.07;4.88;;;;;;;-144.73;100.00;54317.38;5067764;28;20166;-70
2023/05/21 04:40:17;;;;;;;15.82;5.30;;;;;;;-144.73;100.00;54370.75;5068613;28;20120;-70
2023/05/21 04:42:47;;;;;;;10.40;4.53;;;;;;;-144.73;100.00;54366.66;5067941;28;20469;-70
2023/05/21 04:45:12;;;;;;;13.57;4.38;;;;;;;-144.73;100.00;54311.22;5068161;28;20069;-70
2023/05/21 04:47:38;;;;;;;15.80;4.75;;;;;;;-144.73;100.00;54360.50;5067536;28;20032;-70
2023/05/21 04:50:04;;;;;;;21.88;5.28;;;;;;;-144.73;100.00;54354.34;5067803;28;20150;-70
2023/05/21 04:52:30;;;;;;;21.73;6.13;;;;;;;-144.73;100.00;54346.13;5067358;28;20029;-69
2023/05/21 04:54:56;;;;;;;18.40;5.00;;;;;;;-144.73;100.00;54354.34;5066686;28;20119;-70
2023/05/21 04:57:23;;;;;;;14.50;5.07;;;;;;;-144.73;100.00;54325.59;5066920;28;20111;-70
2023/05/21 04:59:48;;;;;;;15.32;5.00;;;;;;;-144.73;100.00;54333.81;5068308;28;20387;-70
2023/05/21 05:02:13;;;;;;;15.75;4.55;;;;;;;-144.73;100.00;54294.81;5071138;28;20029;-70
2023/05/21 05:04:39;;;;;;;11.38;4.93;;;;;;;-144.73;100.00;54329.72;5072506;28;20020;-70
2023/05/21 05:07:04;;;;;;;16.45;5.72;;;;;;;-144.73;100.00;54309.19;5065963;28;20036;-70
2023/05/21 05:09:30;;;;;;;20.92;6.28;;;;;;;-144.73;100.00;54350.22;5072748;28;20047;-70
2023/05/21 05:11:55;;;;;;;15.60;5.05;;;;;;;-144.73;100.00;54337.91;5072189;28;20044;-70
2023/05/21 05:14:21;;;;;;;13.77;5.00;;;;;;;-144.73;100.00;54350.22;5073573;28;20411;-70
2023/05/21 05:16:49;;;;;;;16.05;5.25;;;;;;;-144.73;100.00;54321.50;5072408;28;20032;-70
2023/05/21 05:19:14;;;;;;;12.90;4.90;;;;;;;-144.73;100.00;54337.91;5071067;28;20036;-70
2023/05/21 05:21:40;;;;;;;19.52;5.60;;;;;;;-144.73;100.00;54362.53;5073595;28;20457;-71
2023/05/21 05:24:05;;;;;;;14.60;5.65;;;;;;;-144.73;100.00;54317.38;5069906;28;20133;-71
2023/05/21 05:26:30;;;;;;;15.40;5.18;;;;;;;-144.73;100.00;54358.44;5072394;28;20019;-70
2023/05/21 05:28:56;;;;;;;15.82;5.40;;;;;;;-144.73;100.00;54381.00;5071816;28;20017;-70
2023/05/21 05:31:21;;;;;;;18.30;6.15;;;;;;;-144.73;100.00;54292.75;5071288;28;20027;-70
2023/05/21 05:33:47;;;;;;;17.73;5.65;;;;;;;-144.73;100.00;54335.88;5073305;28;20080;-70
2023/05/21 05:36:12;;;;;;;13.05;5.03;;;;;;;-144.73;100.00;54329.72;5071259;28;20036;-70
2023/05/21 05:38:37;;;;;;;15.98;4.90;;;;;;;-144.73;100.00;54350.22;5070941;28;20119;-70
2023/05/21 05:41:03;;;;;;;12.70;4.93;;;;;;;-144.73;100.00;54346.13;5071914;28;20032;-71
2023/05/21 05:43:28;;;;;;;11.52;5.75;;;;;;;-144.73;100.00;54342.03;5064629;28;20032;-71
2023/05/21 05:45:54;;;;;;;13.82;5.70;;;;;;;-144.73;100.00;54276.34;5071770;28;20016;-71
2023/05/21 05:48:19;;;;;;;15.80;6.10;;;;;;;-144.73;100.00;54346.13;5071266;28;20032;-71
2023/05/21 05:50:45;;;;;;;23.63;5.97;;;;;;;-144.73;100.00;54346.13;5071626;28;20032;-71
2023/05/21 05:53:12;;;;;;;17.35;5.65;;;;;;;-144.73;100.00;54333.81;5071346;28;20040;-71
2023/05/21 05:55:38;;;;;;;14.77;6.32;;;;;;;-144.73;100.00;54339.97;5071067;28;20081;-71
2023/05/21 05:58:03;;;;;;;14.30;5.57;;;;;;;-144.73;100.00;54342.03;5070488;28;20443;-71
2023/05/21 06:00:29;;;;;;;14.75;5.47;;;;;;;-144.73;100.00;54354.34;5070866;28;20099;-71
2023/05/21 06:02:54;;;;;;;22.45;6.80;;;;;;;-144.73;100.00;54374.84;5071068;28;20487;-71
2023/05/21 06:05:19;;;;;;;15.13;5.88;;;;;;;-144.73;100.00;54307.13;5071575;28;20060;-71
2023/05/21 06:07:45;;;;;;;17.60;6.28;;;;;;;-144.73;100.00;54333.81;5070675;28;20027;-71
2023/05/21 06:10:11;;;;;;;18.33;6.25;;;;;;;-144.73;100.00;54346.13;5070104;28;20025;-71
2023/05/21 06:12:36;;;;;;;10.13;4.95;;;;;;;-144.73;100.00;54309.19;5068744;28;20128;-71
2023/05/21 06:15:01;;;;;;;12.15;5.40;;;;;;;-144.73;100.00;54374.84;5072008;28;20025;-71
2023/05/21 06:17:27;;;;;;;10.88;5.20;;;;;;;-144.73;100.00;54329.72;5071261;28;20039;-71
2023/05/21 06:19:52;;;;;;;13.55;6.03;;;;;;;-144.73;100.00;54337.91;5070310;28;20028;-71
2023/05/21 06:22:17;;;;;;;15.18;6.68;;;;;;;-144.73;100.00;54346.13;5070035;28;20036;-72
2023/05/21 06:24:43;;;;;;;19.40;6.00;;;;;;;-144.73;100.00;54354.34;5069483;28;20037;-71
2023/05/21 06:27:08;;;;;;;16.15;5.57;;;;;;;-144.73;100.00;54325.59;5063290;28;20040;-72
2023/05/21 06:29:34;;;;;;;18.10;6.70;;;;;;;-144.73;100.00;54352.28;5065233;28;20056;-72
2023/05/21 06:32:00;;;;;;;19.15;6.40;;;;;;;-144.73;100.00;54327.66;5069721;28;20052;-72
2023/05/21 06:34:26;;;;;;;17.17;6.78;;;;;;;-144.73;100.00;54313.28;5069771;28;20031;-72
2023/05/21 06:36:51;;;;;;;19.70;7.22;;;;;;;-144.73;100.00;54305.06;5070838;28;20024;-71
2023/05/21 06:39:17;;;;;;;24.92;7.32;;;;;;;-144.73;100.00;54325.59;5069600;28;20032;-72
2023/05/21 06:41:42;;;;;;;21.85;6.40;;;;;;;-144.73;100.00;54276.34;5069397;28;20055;-72
2023/05/21 06:44:07;;;;;;;15.70;6.82;;;;;;;-144.73;100.00;54337.91;5070880;28;20020;-72
2023/05/21 06:46:34;;;;;;;15.10;6.30;;;;;;;-144.73;100.00;54323.53;5069738;28;20020;-72
2023/05/21 06:49:00;;;;;;;15.30;7.18;;;;;;;-144.73;100.00;54325.59;5070271;28;20021;-71
2023/05/21 06:51:25;;;;;;;20.33;8.20;;;;;;;-144.73;100.00;54325.59;5069184;28;20020;-71
2023/05/21 06:53:51;;;;;;;17.13;7.15;;;;;;;-144.73;100.00;54337.91;5069418;28;20099;-71
2023/05/21 06:56:16;;;;;;;13.18;7.53;;;;;;;-144.73;100.00;54333.81;5069270;28;20028;-72
2023/05/21 06:58:41;;;;;;;15.23;8.52;;;;;;;-144.73;100.00;54292.75;5071220;28;20135;-72
2023/05/21 07:01:07;;;;;;;16.90;8.32;;;;;;;-144.73;100.00;54329.72;5069610;28;20047;-71
2023/05/21 07:03:32;;;;;;;13.57;7.88;;;;;;;-144.73;100.00;54329.72;5069189;28;20037;-72
2023/05/21 07:05:58;;;;;;;16.73;8.65;;;;;;;-144.73;100.00;54315.34;5070039;28;20021;-72
2023/05/21 07:08:23;;;;;;;21.25;8.57;;;;;;;-144.73;99.33;54333.81;5070271;28;20093;-73
2023/05/21 07:10:48;;;;;;;15.73;7.75;;;;;;;-144.73;99.85;54305.06;5069840;28;20017;-72
2023/05/21 07:13:14;;;;;;;17.73;7.80;;;;;;;-144.73;99.35;54313.28;5068686;28;20035;-72
2023/05/21 07:15:40;;;;;;;20.08;8.27;;;;;;;-144.73;98.37;54296.88;5069753;28;20033;-72
2023/05/21 07:18:05;;;;;;;18.42;7.78;;;;;;;-144.73;97.42;54323.53;5070253;28;20032;-72
2023/05/21 07:20:30;;;;;;;13.98;7.65;;;;;;;-144.73;97.02;54300.97;5071275;28;20028;-72
2023/05/21 07:22:56;;;;;;;17.23;8.23;;;;;;;-144.73;96.10;54354.34;5068333;28;20036;-71
2023/05/21 07:25:22;;;;;;;16.85;9.48;;;;;;;-144.73;97.14;54288.66;5067971;28;20029;-72
2023/05/21 07:27:47;;;;;;;20.23;8.55;;;;;;;-144.73;97.41;54319.44;5068838;28;20051;-72
2023/05/21 07:30:13;;;;;;;15.85;8.95;;;;;;;-144.73;96.15;54300.97;5068834;28;20024;-72
2023/05/21 07:32:38;;;;;;;12.57;8.48;;;;;;;-144.73;98.32;54321.50;5070213;28;20029;-72
2023/05/21 07:35:05;;;;;;;17.85;9.68;;;;;;;-144.73;98.31;54237.34;5069711;28;20031;-72
2023/05/21 07:37:31;;;;;;;16.65;9.52;;;;;;;-144.73;97.57;54243.50;5068674;28;20025;-72
2023/05/21 07:39:59;;;;;;;12.98;8.38;;;;;;;-144.73;95.01;54321.50;5070512;28;20103;-72
2023/05/21 07:42:25;;;;;;;18.73;8.60;;;;;;;-144.73;95.08;54305.06;5054371;28;20056;-72
2023/05/21 07:44:51;;;;;;;19.20;7.93;;;;;;;-144.73;94.64;54313.28;5070199;28;20024;-72
2023/05/21 07:47:16;;;;;;;20.35;8.57;;;;;;;-144.73;93.76;54290.72;5070054;28;20040;-72
2023/05/21 07:49:41;;;;;;;16.23;9.18;;;;;;;-144.73;92.86;54335.88;5068873;28;20077;-72
2023/05/21 07:52:07;;;;;;;20.23;9.05;;;;;;;-144.73;93.94;54288.66;5067440;28;20069;-72
2023/05/21 07:54:32;;;;;;;13.52;8.70;;;;;;;-144.73;94.18;54296.88;5061820;28;20024;-73
2023/05/21 07:56:58;;;;;;;19.58;10.45;;;;;;;-144.73;93.87;54296.88;5067186;28;20047;-72
2023/05/21 07:59:24;;;;;;;18.08;10.02;;;;;;;-144.73;94.60;54284.56;5069780;28;20024;-72
2023/05/21 08:01:50;;;;;;;18.23;9.13;;;;;;;-144.73;93.44;54329.72;5066182;28;20439;-72
2023/05/21 08:04:16;;;;;;;16.30;10.35;;;;;;;-144.73;92.94;54313.28;5059285;28;20029;-72
2023/05/21 08:06:41;;;;;;;18.45;9.80;;;;;;;-144.73;91.47;54276.34;5065975;28;20036;-72
2023/05/21 08:09:07;;;;;;;24.15;9.40;;;;;;;-144.73;91.49;54300.97;5063648;28;20048;-71
2023/05/21 08:11:32;;;;;;;19.52;10.32;;;;;;;-144.73;91.44;54282.50;5063726;28;20016;-71
2023/05/21 08:13:57;;;;;;;20.67;10.48;;;;;;;-144.73;90.09;54313.28;5064700;28;20027;-71
2023/05/21 08:16:23;;;;;;;24.20;9.98;;;;;;;-144.73;88.87;54309.19;5068313;28;20067;-71
2023/05/21 08:18:49;;;;;;;21.17;10.95;;;;;;;-144.73;89.42;54354.34;5068203;28;20017;-71
2023/05/21 08:21:15;;;;;;;22.80;11.02;;;;;;;-144.73;89.71;54337.91;5069022;28;20032;-71
2023/05/21 08:23:41;;;;;;;16.80;9.80;;;;;;;-144.73;88.77;54255.81;5067242;28;20024;-71
2023/05/21 08:26:07;;;;;;;16.55;11.38;;;;;;;-144.73;87.67;54300.97;5068166;28;20028;-71
2023/05/21 08:28:34;;;;;;;19.55;10.07;;;;;;;-144.73;87.03;54313.28;5056933;28;20024;-73
2023/05/21 08:31:00;;;;;;;24.50;11.60;;;;;;;-144.73;88.26;54303.03;5069315;28;20052;-72
2023/05/21 08:33:26;;;;;;;31.30;11.77;;;;;;;-144.73;86.57;54284.56;5069034;28;20033;-73
2023/05/21 08:35:52;;;;;;;19.70;10.68;;;;;;;-144.73;87.12;54309.19;5068832;28;20099;-73
2023/05/21 08:38:24;;;;;;;18.52;10.88;;;;;;;-144.73;85.81;54288.66;5065462;28;20553;-75
2023/05/21 08:41:13;;;;;;;22.83;11.35;;;;;;;-144.73;86.78;54305.06;5085289;28;20020;-73
2023/05/21 08:43:39;;;;;;;18.83;11.18;;;;;;;-144.73;86.21;54292.75;5043167;28;20566;-73
2023/05/21 08:46:08;;;;;;;16.63;10.90;;;;;;;-144.73;85.83;54309.19;5069695;28;20174;-73
2023/05/21 08:48:39;;;;;;;20.55;12.23;;;;;;;-144.73;85.52;54309.19;5060636;28;20049;-73
2023/05/21 08:51:05;;;;;;;20.13;11.50;;;;;;;-144.73;85.93;54313.28;5067885;28;20021;-73
2023/05/21 08:53:32;;;;;;;19.75;10.48;;;;;;;-144.73;88.21;54321.50;5067630;28;20048;-72
2023/05/21 08:55:57;;;;;;;21.70;11.93;;;;;;;-144.73;87.09;54280.44;5066316;28;20028;-73
2023/05/21 08:58:23;;;;;;;22.27;12.82;;;;;;;-144.73;87.88;54309.19;5066592;28;20035;-72
2023/05/21 09:00:48;;;;;;;16.95;11.50;;;;;;;-144.73;87.94;54296.88;5068508;28;20033;-72
2023/05/21 09:03:15;;;;;;;22.45;12.02;;;;;;;-144.73;89.33;54276.34;5068031;28;20041;-73
2023/05/21 09:05:41;;;;;;;19.27;12.85;;;;;;;-144.73;88.52;54280.44;5067177;28;20021;-72
2023/05/21 09:08:14;;;;;;;26.65;13.80;;;;;;;-144.73;88.07;54300.97;5067311;28;20060;-72
2023/05/21 09:10:48;;;;;;;21.58;13.52;;;;;;;-144.73;87.95;54305.06;5067198;28;20053;-73
2023/05/21 09:13:16;;;;;;;19.55;11.57;;;;;;;-144.73;87.71;54342.03;5065520;28;20032;-73
2023/05/21 09:15:42;;;;;;;21.83;11.40;;;;;;;-144.73;88.08;54276.34;5067978;28;20530;-72
2023/05/21 09:18:07;;;;;;;20.92;12.57;;;;;;;-144.73;87.05;54309.19;5053420;28;20063;-72
2023/05/21 09:20:33;;;;;;;16.98;11.50;;;;;;;-144.73;87.00;54276.34;5034977;28;20067;-72
2023/05/21 09:23:02;;;;;;;24.98;12.55;;;;;;;-144.73;85.11;54282.50;5059530;28;20037;-72
2023/05/21 09:25:28;;;;;;;22.38;11.82;;;;;;;-144.73;85.85;54313.28;5056912;28;20029;-72
2023/05/21 09:27:57;;;;;;;24.00;12.45;;;;;;;-144.73;87.16;54317.38;5061324;28;20131;-72
2023/05/21 09:30:23;;;;;;;16.63;11.50;;;;;;;-144.73;86.71;54305.06;5062481;28;20105;-71
2023/05/21 09:32:57;;;;;;;20.95;12.20;;;;;;;-144.73;86.50;54276.34;5055173;28;20024;-72
2023/05/21 09:35:22;;;;;;;17.50;12.77;;;;;;;-144.73;86.37;54276.34;5060952;28;20112;-71
2023/05/21 09:37:51;;;;;;;22.98;12.50;;;;;;;-144.73;87.16;54300.97;5063692;28;20187;-72
2023/05/21 09:40:21;;;;;;;19.92;12.63;;;;;;;-144.73;85.88;54329.72;5055932;28;20060;-72
2023/05/21 09:42:51;;;;;;;20.75;13.07;;;;;;;-144.73;86.35;54292.75;5062577;28;20032;-73
2023/05/21 09:45:21;;;;;;;21.38;13.10;;;;;;;-144.73;85.20;54280.44;5061427;28;20032;-72
2023/05/21 09:47:48;;;;;;;19.98;11.07;;;;;;;-144.73;84.33;54259.91;5061081;28;20092;-72
2023/05/21 09:50:18;;;;;;;19.77;11.95;;;;;;;-144.73;83.55;54259.91;5060412;28;20035;-72
2023/05/21 09:52:44;;;;;;;16.27;11.13;;;;;;;-144.73;82.17;54276.34;5064206;28;20069;-72
2023/05/21 09:55:11;;;;;;;24.50;13.13;;;;;;;-144.73;81.18;54288.66;5060585;28;20438;-72
2023/05/21 09:57:47;;;;;;;20.77;12.45;;;;;;;-144.73;83.40;54276.34;5062643;28;20024;-72
2023/05/21 10:00:20;;;;;;;18.67;11.85;;;;;;;-144.73;81.22;54307.13;5064160;28;20032;-72
2023/05/21 10:02:47;;;;;;;21.33;13.10;;;;;;;-144.73;82.55;54288.66;5065889;28;20083;-72
2023/05/21 10:05:14;;;;;;;19.70;12.48;;;;;;;-144.73;81.50;54342.03;5063547;28;20025;-73
2023/05/21 10:07:43;;;;;;;22.80;14.02;;;;;;;-144.73;80.72;54276.34;5064934;28;20024;-73
2023/05/21 10:10:12;;;;;;;29.35;13.70;;;;;;;-144.73;81.40;54276.34;5064327;28;20037;-72
2023/05/21 10:12:41;;;;;;;17.90;12.32;;;;;;;-144.73;81.19;54264.03;5064322;28;20027;-72
2023/05/21 10:15:12;;;;;;;22.30;13.63;;;;;;;-144.73;78.94;54239.41;5065063;28;20033;-72
2023/05/21 10:17:38;;;;;;;22.03;13.20;;;;;;;-144.73;78.43;54235.28;5058710;28;20028;-72
2023/05/21 10:20:06;;;;;;;22.63;13.35;;;;;;;-144.73;78.56;54198.34;5063824;28;20286;-72
2023/05/21 10:22:31;;;;;;;18.63;13.32;;;;;;;-144.73;79.42;54313.28;5065309;28;20027;-71
2023/05/21 10:24:57;;;;;;;26.83;13.60;;;;;;;-144.73;76.99;54251.72;5064642;28;20020;-72
2023/05/21 10:27:23;;;;;;;18.55;12.63;;;;;;;-144.73;78.10;54276.34;5064651;28;20028;-72
2023/05/21 10:29:48;;;;;;;18.58;13.70;;;;;;;-144.73;77.02;54342.03;5067190;28;20017;-72
2023/05/21 10:32:18;;;;;;;20.45;12.30;;;;;;;-144.73;76.92;54206.56;5065018;28;20103;-72
2023/05/21 10:34:44;;;;;;;34.58;13.95;;;;;;;-144.73;76.68;54227.09;5064301;28;20025;-72
2023/05/21 10:37:11;;;;;;;18.85;13.05;;;;;;;-144.73;76.74;54235.28;5066513;28;20040;-72
2023/05/21 10:39:38;;;;;;;21.63;11.95;;;;;;;-144.73;76.20;54342.03;5063926;28;20016;-72
2023/05/21 10:42:23;;;;;;;21.50;11.85;;;;;;;-144.73;74.23;54278.41;5063803;28;20044;-72
2023/05/21 10:45:25;;;;;;;22.20;10.40;;;;;;;-144.73;73.93;54247.59;5064594;28;20024;-72
2023/05/21 10:48:26;;;;;;;16.20;11.02;;;;;;;-144.73;71.07;54216.81;5061599;28;20008;-72
2023/05/21 10:51:09;;;;;;;15.73;8.95;;;;;;;-144.73;72.42;54243.50;5060591;28;20047;-72
2023/05/21 10:53:54;;;;;;;15.35;10.10;;;;;;;-144.73;71.00;54227.09;5060099;28;20032;-72
2023/05/21 10:56:42;;;;;;;17.98;10.02;;;;;;;-144.73;69.44;54243.50;5064278;28;20037;-72
2023/05/21 10:59:22;;;;;;;25.35;10.07;;;;;;;-144.73;69.62;54251.72;5065781;28;20103;-74
2023/05/21 11:01:51;;;;;;;15.85;10.18;;;;;;;-144.73;67.78;54231.19;5070203;28;20061;-74